Time,TemperatureF,DewpointF,PressureIn,WindDirection,WindDirectionDegrees,WindSpeedMPH,WindSpeedGustMPH,Humidity,HourlyPrecipIn,Conditions,Clouds,dailyrainin,SolarRadiationWatts/m^2,SoftwareType,DateUTC
2013-08-14 00:03:00,68.0,64.0,-100.00,NNW,347,0.0,0.0,87,0.00,,,0.08,0.000000,,2013-08-14 04:03:00,
2013-08-14 00:42:00,67.0,63.0,-100.00,NNW,336,0.0,0.0,87,0.00,,,0.08,0.000000,,2013-08-14 04:42:00,
2013-08-14 00:52:00,67.0,63.0,-100.00,NNW,336,0.0,0.0,87,0.00,,,0.08,0.000000,,2013-08-14 04:52:00,
2013-08-14 01:02:00,67.0,63.0,-100.00,NNW,336,0.0,0.0,87,0.00,,,0.08,0.000000,,2013-08-14 05:02:00,
2013-08-14 01:42:00,66.0,63.0,-100.00,North,2,0.0,0.0,90,0.00,,,0.08,0.000000,,2013-08-14 05:42:00,
2013-08-14 01:52:00,66.0,63.0,-100.00,North,2,0.0,0.0,90,0.00,,,0.08,0.000000,,2013-08-14 05:52:00,
2013-08-14 02:01:00,66.0,63.0,-100.00,North,2,0.0,0.0,90,0.00,,,0.08,0.000000,,2013-08-14 06:01:00,
2013-08-14 02:42:00,67.0,62.0,-100.00,NNW,336,0.0,0.0,84,0.00,,,0.08,0.000000,,2013-08-14 06:42:00,
2013-08-14 02:52:00,67.0,62.0,-100.00,NNW,336,0.0,0.0,84,0.00,,,0.08,0.000000,,2013-08-14 06:52:00,
2013-08-14 03:01:00,67.0,62.0,-100.00,NNW,336,0.0,0.0,84,0.00,,,0.08,0.000000,,2013-08-14 07:01:00,
2013-08-14 03:42:00,65.0,61.0,-100.00,North,352,0.0,0.0,86,0.00,,,0.08,0.000000,,2013-08-14 07:42:00,
2013-08-14 03:52:00,65.0,61.0,-100.00,North,352,0.0,0.0,86,0.00,,,0.08,0.000000,,2013-08-14 07:52:00,
2013-08-14 04:01:00,65.0,61.0,-100.00,North,352,0.0,0.0,86,0.00,,,0.08,0.000000,,2013-08-14 08:01:00,
2013-08-14 04:42:00,65.0,58.0,-100.00,West,279,1.0,2.0,78,0.00,,,0.08,0.000000,,2013-08-14 08:42:00,
2013-08-14 04:52:00,65.0,58.0,-100.00,West,279,1.0,2.0,78,0.00,,,0.08,0.000000,,2013-08-14 08:52:00,
2013-08-14 05:02:00,65.0,58.0,-100.00,West,279,1.0,2.0,78,0.00,,,0.08,0.000000,,2013-08-14 09:02:00,
2013-08-14 05:43:00,63.0,58.0,-100.00,West,262,0.0,1.0,83,0.00,,,0.08,0.000000,,2013-08-14 09:43:00,
2013-08-14 05:53:00,63.0,58.0,-100.00,West,262,0.0,1.0,83,0.00,,,0.08,0.000000,,2013-08-14 09:53:00,
2013-08-14 06:03:00,63.0,58.0,-100.00,West,262,0.0,1.0,83,0.00,,,0.08,0.000000,,2013-08-14 10:03:00,
2013-08-14 06:43:00,62.0,56.0,-100.00,NNW,340,0.0,0.0,81,0.00,,,0.08,0.000000,,2013-08-14 10:43:00,
2013-08-14 06:53:00,62.0,56.0,-100.00,NNW,340,0.0,0.0,81,0.00,,,0.08,0.000000,,2013-08-14 10:53:00,
2013-08-14 07:02:00,62.0,56.0,-100.00,NNW,340,0.0,0.0,81,0.00,,,0.08,0.000000,,2013-08-14 11:02:00,
2013-08-14 07:42:00,61.0,54.0,-100.00,SSW,198,0.0,0.0,78,0.00,,,0.08,7.000000,,2013-08-14 11:42:00,
2013-08-14 07:52:00,61.0,54.0,-100.00,SSW,198,0.0,0.0,78,0.00,,,0.08,7.000000,,2013-08-14 11:52:00,
2013-08-14 08:01:00,61.0,54.0,-100.00,SSW,198,0.0,0.0,78,0.00,,,0.08,7.000000,,2013-08-14 12:01:00,
2013-08-14 08:42:00,65.0,54.0,-100.00,SSE,148,0.0,0.0,67,0.00,,,0.08,121.000000,,2013-08-14 12:42:00,
2013-08-14 08:52:00,65.0,54.0,-100.00,SSE,148,0.0,0.0,67,0.00,,,0.08,121.000000,,2013-08-14 12:52:00,
2013-08-14 09:02:00,65.0,54.0,-100.00,SSE,148,0.0,0.0,67,0.00,,,0.08,121.000000,,2013-08-14 13:02:00,
2013-08-14 09:42:00,68.0,51.0,-100.00,WSW,242,1.0,1.0,55,0.00,,,0.05,356.000000,,2013-08-14 13:42:00,
2013-08-14 09:52:00,68.0,51.0,-100.00,WSW,242,1.0,1.0,55,0.00,,,0.05,356.000000,,2013-08-14 13:52:00,
2013-08-14 10:02:00,68.0,51.0,-100.00,WSW,242,1.0,1.0,55,0.00,,,0.05,356.000000,,2013-08-14 14:02:00,
2013-08-14 10:42:00,69.0,48.0,-100.00,SSW,208,4.0,7.0,48,0.00,,,0.04,588.000000,,2013-08-14 14:42:00,
2013-08-14 10:52:00,69.0,48.0,-100.00,SSW,208,4.0,7.0,48,0.00,,,0.04,588.000000,,2013-08-14 14:52:00,
2013-08-14 11:02:00,69.0,48.0,-100.00,SSW,208,4.0,7.0,48,0.00,,,0.04,588.000000,,2013-08-14 15:02:00,
2013-08-14 11:44:00,72.0,49.0,-100.00,SSW,197,3.0,9.0,44,0.00,,,0.04,787.000000,,2013-08-14 15:44:00,
2013-08-14 11:57:00,72.0,49.0,-100.00,SSW,197,3.0,9.0,44,0.00,,,0.04,787.000000,,2013-08-14 15:57:00,
2013-08-14 12:04:00,72.0,49.0,-100.00,SSW,197,3.0,9.0,44,0.00,,,0.04,787.000000,,2013-08-14 16:04:00,
2013-08-14 12:43:00,73.0,50.0,-100.00,SSW,202,3.0,9.0,45,0.00,,,0.04,925.000000,,2013-08-14 16:43:00,
2013-08-14 13:05:00,73.0,50.0,-100.00,SSW,202,3.0,9.0,45,0.00,,,0.04,925.000000,,2013-08-14 17:05:00,
2013-08-14 13:07:00,74.0,46.0,-100.00,SE,137,4.0,10.0,37,0.00,,,0.04,716.000000,,2013-08-14 17:07:00,
2013-08-14 13:44:00,74.0,46.0,-100.00,SE,137,4.0,10.0,37,0.00,,,0.04,716.000000,,2013-08-14 17:44:00,
2013-08-14 13:55:00,74.0,46.0,-100.00,SE,137,4.0,10.0,37,0.00,,,0.04,716.000000,,2013-08-14 17:55:00,
2013-08-14 15:03:00,77.0,53.0,-100.00,SW,226,3.0,7.0,43,0.00,,,0.01,1020.000000,,2013-08-14 19:03:00,
2013-08-14 15:42:00,79.0,50.0,-100.00,WSW,249,3.0,10.0,36,0.00,,,0.00,997.000000,,2013-08-14 19:42:00,
2013-08-14 15:58:00,79.0,50.0,-100.00,WSW,249,3.0,10.0,36,0.00,,,0.00,997.000000,,2013-08-14 19:58:00,
2013-08-14 16:05:00,79.0,50.0,-100.00,WSW,249,3.0,10.0,36,0.00,,,0.00,997.000000,,2013-08-14 20:05:00,
2013-08-14 16:49:00,78.0,54.0,-100.00,West,260,3.0,7.0,43,0.00,,,0.00,890.000000,,2013-08-14 20:49:00,
2013-08-14 17:45:00,76.0,52.0,-100.00,WSW,252,3.0,6.0,44,0.00,,,0.00,716.000000,,2013-08-14 21:45:00,
2013-08-14 17:55:00,76.0,52.0,-100.00,WSW,252,3.0,6.0,44,0.00,,,0.00,716.000000,,2013-08-14 21:55:00,
2013-08-14 18:04:00,76.0,52.0,-100.00,WSW,252,3.0,6.0,44,0.00,,,0.00,716.000000,,2013-08-14 22:04:00,
2013-08-14 18:44:00,70.0,52.0,-100.00,SW,236,2.0,6.0,53,0.00,,,0.00,221.000000,,2013-08-14 22:44:00,
2013-08-14 18:55:00,70.0,52.0,-100.00,SW,236,2.0,6.0,53,0.00,,,0.00,221.000000,,2013-08-14 22:55:00,
2013-08-14 19:06:00,70.0,52.0,-100.00,SW,236,2.0,6.0,53,0.00,,,0.00,221.000000,,2013-08-14 23:06:00,
2013-08-14 19:46:00,67.0,54.0,-100.00,WNW,283,2.0,5.0,62,0.00,,,0.00,45.000000,,2013-08-14 23:46:00,
2013-08-14 19:56:00,67.0,54.0,-100.00,WNW,283,2.0,5.0,62,0.00,,,0.00,45.000000,,2013-08-14 23:56:00,
2013-08-14 20:04:00,67.0,54.0,-100.00,WNW,283,2.0,5.0,62,0.00,,,0.00,45.000000,,2013-08-15 00:04:00,
2013-08-14 20:43:00,64.0,53.0,-100.00,NNE,16,1.0,5.0,68,0.00,,,0.00,23.000000,,2013-08-15 00:43:00,
2013-08-14 20:52:00,64.0,53.0,-100.00,NNE,16,1.0,5.0,68,0.00,,,0.00,23.000000,,2013-08-15 00:52:00,
2013-08-14 21:01:00,64.0,53.0,-100.00,NNE,16,1.0,5.0,68,0.00,,,0.00,23.000000,,2013-08-15 01:01:00,
2013-08-14 21:42:00,61.0,51.0,-100.00,North,3,1.0,2.0,70,0.00,,,0.00,1.000000,,2013-08-15 01:42:00,
2013-08-14 21:52:00,61.0,51.0,-100.00,North,3,1.0,2.0,70,0.00,,,0.00,1.000000,,2013-08-15 01:52:00,
2013-08-14 22:02:00,61.0,51.0,-100.00,North,3,1.0,2.0,70,0.00,,,0.00,1.000000,,2013-08-15 02:02:00,
2013-08-14 22:52:00,58.0,51.0,-100.00,NNW,345,2.0,5.0,78,0.00,,,0.00,0.000000,,2013-08-15 02:52:00,
2013-08-14 23:02:00,58.0,51.0,-100.00,NNW,345,2.0,5.0,78,0.00,,,0.00,0.000000,,2013-08-15 03:02:00,
2013-08-14 23:44:00,57.0,50.0,-100.00,NW,325,2.0,4.0,78,0.00,,,0.00,0.000000,,2013-08-15 03:44:00,
2013-08-14 23:53:00,57.0,50.0,-100.00,NW,325,2.0,4.0,78,0.00,,,0.00,0.000000,,2013-08-15 03:53:00,